createdAt,value
2023-10-09T00:00:57.000Z,282.77
2023-10-09T00:02:23.000Z,282.78
2023-10-09T00:04:29.000Z,282.77
2023-10-09T00:05:56.000Z,282.78
2023-10-09T00:08:02.000Z,282.75
2023-10-09T00:09:29.000Z,282.75
2023-10-09T00:11:35.000Z,282.77
2023-10-09T00:14:21.000Z,282.75
2023-10-09T00:15:47.000Z,282.77
2023-10-09T00:17:53.000Z,282.78
2023-10-09T00:19:20.000Z,282.78
2023-10-09T00:21:26.000Z,282.78
2023-10-09T00:22:53.000Z,282.81
2023-10-09T00:24:59.000Z,282.81
2023-10-09T00:26:26.000Z,282.82
2023-10-09T00:28:32.000Z,282.82
2023-10-09T00:29:59.000Z,282.82
2023-10-09T00:32:05.000Z,282.81
2023-10-09T00:33:32.000Z,282.81
2023-10-09T00:35:38.000Z,282.79
2023-10-09T00:37:05.000Z,282.79
2023-10-09T00:39:11.000Z,282.78
2023-10-09T00:40:38.000Z,282.78
2023-10-09T00:42:44.000Z,282.78
2023-10-09T00:44:11.000Z,282.75
2023-10-09T00:46:17.000Z,282.75
2023-10-09T00:47:44.000Z,282.75
2023-10-09T00:49:50.000Z,282.75
2023-10-09T00:52:35.000Z,282.73
2023-10-09T00:54:02.000Z,282.74
2023-10-09T00:56:08.000Z,282.75
2023-10-09T00:57:35.000Z,282.74
2023-10-09T00:59:41.000Z,282.74
2023-10-09T01:01:07.000Z,282.75
2023-10-09T01:03:14.000Z,282.75
2023-10-09T01:04:40.000Z,282.74
2023-10-09T01:06:47.000Z,282.73
2023-10-09T01:08:14.000Z,282.7
2023-10-09T01:10:20.000Z,282.67
2023-10-09T01:11:46.000Z,282.64
2023-10-09T01:13:52.000Z,282.61
2023-10-09T01:15:19.000Z,282.6
2023-10-09T01:17:25.000Z,282.57
2023-10-09T01:18:52.000Z,282.56
2023-10-09T01:20:58.000Z,282.54
2023-10-09T01:22:24.000Z,282.53
2023-10-09T01:24:31.000Z,282.5
2023-10-09T01:25:57.000Z,282.49
2023-10-09T01:28:03.000Z,282.47
2023-10-09T01:30:49.000Z,282.45
2023-10-09T01:32:15.000Z,282.43
2023-10-09T01:34:21.000Z,282.39
2023-10-09T01:35:48.000Z,282.36
2023-10-09T01:37:54.000Z,282.35
2023-10-09T01:39:20.000Z,282.31
2023-10-09T01:41:27.000Z,282.31
2023-10-09T01:42:53.000Z,282.28
2023-10-09T01:45:00.000Z,282.26
2023-10-09T01:46:26.000Z,282.24
2023-10-09T01:48:33.000Z,282.24
2023-10-09T01:49:59.000Z,282.21
2023-10-09T01:52:05.000Z,282.19
2023-10-09T01:53:32.000Z,282.17
2023-10-09T01:55:38.000Z,282.16
2023-10-09T01:57:05.000Z,282.12
2023-10-09T01:59:11.000Z,282.09
2023-10-09T02:00:37.000Z,282.08
2023-10-09T02:02:43.000Z,282.03
2023-10-09T02:04:10.000Z,282.01
2023-10-09T02:06:16.000Z,281.98
2023-10-09T02:09:03.000Z,281.92
2023-10-09T02:10:29.000Z,281.92
2023-10-09T02:12:36.000Z,281.89
2023-10-09T02:14:02.000Z,281.89
2023-10-09T02:16:08.000Z,281.89
2023-10-09T02:17:35.000Z,281.89
2023-10-09T02:19:41.000Z,281.91
2023-10-09T02:21:08.000Z,281.91
2023-10-09T02:23:14.000Z,281.92
2023-10-09T02:24:40.000Z,281.92
2023-10-09T02:26:47.000Z,281.94
2023-10-09T02:28:13.000Z,281.95
2023-10-09T02:30:20.000Z,281.96
2023-10-09T02:31:46.000Z,281.99
2023-10-09T02:33:53.000Z,282.01
2023-10-09T02:35:19.000Z,282.01
2023-10-09T02:37:25.000Z,282.02
2023-10-09T02:38:52.000Z,282.03
2023-10-09T02:40:58.000Z,282.03
2023-10-09T02:42:25.000Z,282.05
2023-10-09T02:44:31.000Z,282.05
2023-10-09T02:47:17.000Z,282.09
2023-10-09T02:48:43.000Z,282.1
2023-10-09T02:50:49.000Z,282.12
2023-10-09T02:52:16.000Z,282.13
2023-10-09T02:54:22.000Z,282.14
2023-10-09T02:55:49.000Z,282.14
2023-10-09T02:57:55.000Z,282.16
2023-10-09T02:59:21.000Z,282.17
2023-10-09T03:01:27.000Z,282.17
2023-10-09T03:02:54.000Z,282.2
2023-10-09T03:05:00.000Z,282.21
2023-10-09T03:06:27.000Z,282.23
2023-10-09T03:08:33.000Z,282.23
2023-10-09T03:10:00.000Z,282.26
2023-10-09T03:12:06.000Z,282.28
2023-10-09T03:13:33.000Z,282.31
2023-10-09T03:15:39.000Z,282.31
2023-10-09T03:17:06.000Z,282.35
2023-10-09T03:19:12.000Z,282.35
2023-10-09T03:20:39.000Z,282.36
2023-10-09T03:22:46.000Z,282.34
2023-10-09T03:25:32.000Z,282.35
2023-10-09T03:26:59.000Z,282.34
2023-10-09T03:29:05.000Z,282.35
2023-10-09T03:30:31.000Z,282.36
2023-10-09T03:32:38.000Z,282.36
2023-10-09T03:34:05.000Z,282.36
2023-10-09T03:36:11.000Z,282.36
2023-10-09T03:37:37.000Z,282.35
2023-10-09T03:39:44.000Z,282.31
2023-10-09T03:41:10.000Z,282.3
2023-10-09T03:43:17.000Z,282.3
2023-10-09T03:44:43.000Z,282.28
2023-10-09T03:46:50.000Z,282.3
2023-10-09T03:48:16.000Z,282.28
2023-10-09T03:50:23.000Z,282.3
2023-10-09T03:51:49.000Z,282.31
2023-10-09T03:53:56.000Z,282.3
2023-10-09T03:55:22.000Z,282.3
2023-10-09T03:57:29.000Z,282.31
2023-10-09T03:58:55.000Z,282.3
2023-10-09T04:01:02.000Z,282.3
2023-10-09T04:03:47.000Z,282.3
2023-10-09T04:05:14.000Z,282.31
2023-10-09T04:07:20.000Z,282.34
2023-10-09T04:08:46.000Z,282.35
2023-10-09T04:10:52.000Z,282.35
2023-10-09T04:12:24.000Z,282.36
2023-10-09T04:14:31.000Z,282.36
2023-10-09T04:15:57.000Z,282.38
2023-10-09T04:18:03.000Z,282.39
2023-10-09T04:19:30.000Z,282.41
2023-10-09T04:21:36.000Z,282.41
2023-10-09T04:23:03.000Z,282.41
2023-10-09T04:25:09.000Z,282.41
2023-10-09T04:26:36.000Z,282.42
2023-10-09T04:28:42.000Z,282.42
2023-10-09T04:30:08.000Z,282.43
2023-10-09T04:32:15.000Z,282.43
2023-10-09T04:33:45.000Z,282.43
2023-10-09T04:35:51.000Z,282.43
2023-10-09T04:37:17.000Z,282.45
2023-10-09T04:39:24.000Z,282.45
2023-10-09T04:42:09.000Z,282.43
2023-10-09T04:43:36.000Z,282.45
2023-10-09T04:45:42.000Z,282.46
2023-10-09T04:47:09.000Z,282.43
2023-10-09T04:49:19.000Z,282.45
2023-10-09T04:50:45.000Z,282.45
2023-10-09T04:52:51.000Z,282.46
2023-10-09T04:54:18.000Z,282.47
2023-10-09T04:56:24.000Z,282.49
2023-10-09T04:57:51.000Z,282.47
2023-10-09T04:59:57.000Z,282.47
2023-10-09T05:01:24.000Z,282.49
2023-10-09T05:03:30.000Z,282.49
2023-10-09T05:04:57.000Z,282.49
2023-10-09T05:07:03.000Z,282.49
2023-10-09T05:08:30.000Z,282.49
2023-10-09T05:10:36.000Z,282.5
2023-10-09T05:12:03.000Z,282.49
2023-10-09T05:14:09.000Z,282.5
2023-10-09T05:15:35.000Z,282.5
2023-10-09T05:17:42.000Z,282.49
2023-10-09T05:20:27.000Z,282.52
2023-10-09T05:21:54.000Z,282.52
2023-10-09T05:24:00.000Z,282.52
2023-10-09T05:25:26.000Z,282.53
2023-10-09T05:27:33.000Z,282.54
2023-10-09T05:28:59.000Z,282.56
2023-10-09T05:31:05.000Z,282.57
2023-10-09T05:32:32.000Z,282.59
2023-10-09T05:34:38.000Z,282.61
2023-10-09T05:36:04.000Z,282.64
2023-10-09T05:38:11.000Z,282.64
2023-10-09T05:39:37.000Z,282.67
2023-10-09T05:41:44.000Z,282.68
2023-10-09T05:43:10.000Z,282.7
2023-10-09T05:45:16.000Z,282.73
2023-10-09T05:46:43.000Z,282.74
2023-10-09T05:48:50.000Z,282.77
2023-10-09T05:50:16.000Z,282.78
2023-10-09T05:52:22.000Z,282.79
2023-10-09T05:53:49.000Z,282.82
2023-10-09T05:55:55.000Z,282.84
2023-10-09T05:58:41.000Z,282.91
2023-10-09T06:00:07.000Z,282.96
2023-10-09T06:02:13.000Z,282.99
2023-10-09T06:03:40.000Z,283.02
2023-10-09T06:05:46.000Z,283.05
2023-10-09T06:07:13.000Z,283.09
2023-10-09T06:09:19.000Z,283.11
2023-10-09T06:10:46.000Z,283.1
2023-10-09T06:12:52.000Z,283.11
2023-10-09T06:14:23.000Z,283.11
2023-10-09T06:16:29.000Z,283.14
2023-10-09T06:17:56.000Z,283.18
2023-10-09T06:20:02.000Z,283.22
2023-10-09T06:21:29.000Z,283.22
2023-10-09T06:23:35.000Z,283.25
2023-10-09T06:25:02.000Z,283.26
2023-10-09T06:27:08.000Z,283.26
2023-10-09T06:28:35.000Z,283.3
2023-10-09T06:30:41.000Z,283.32
2023-10-09T06:32:08.000Z,283.33
2023-10-09T06:34:14.000Z,283.34
2023-10-09T06:37:00.000Z,283.38
2023-10-09T06:38:26.000Z,283.41
2023-10-09T06:40:32.000Z,283.45
2023-10-09T06:41:59.000Z,283.48
2023-10-09T06:44:05.000Z,283.48
2023-10-09T06:45:34.000Z,283.5
2023-10-09T06:47:40.000Z,283.52
2023-10-09T06:49:07.000Z,283.55
2023-10-09T06:51:13.000Z,283.62
2023-10-09T06:52:39.000Z,283.68
2023-10-09T06:54:46.000Z,283.73
2023-10-09T06:56:12.000Z,283.8
2023-10-09T06:58:18.000Z,283.83
2023-10-09T06:59:45.000Z,283.89
2023-10-09T07:01:51.000Z,283.86
2023-10-09T07:03:18.000Z,283.91
2023-10-09T07:05:24.000Z,283.94
2023-10-09T07:06:51.000Z,283.96
2023-10-09T07:08:57.000Z,283.97
2023-10-09T07:10:24.000Z,284
2023-10-09T07:12:30.000Z,283.98
2023-10-09T07:15:15.000Z,284.04
2023-10-09T07:16:42.000Z,284.04
2023-10-09T07:18:48.000Z,284.05
2023-10-09T07:20:15.000Z,284.07
2023-10-09T07:22:21.000Z,284.11
2023-10-09T07:23:48.000Z,284.11
2023-10-09T07:25:54.000Z,284.12
2023-10-09T07:27:21.000Z,284.16
2023-10-09T07:29:27.000Z,284.17
2023-10-09T07:30:53.000Z,284.2
2023-10-09T07:33:00.000Z,284.23
2023-10-09T07:34:26.000Z,284.31
2023-10-09T07:36:32.000Z,284.4
2023-10-09T07:37:59.000Z,284.44
2023-10-09T07:40:05.000Z,284.44
2023-10-09T07:41:31.000Z,284.48
2023-10-09T07:43:37.000Z,284.51
2023-10-09T07:45:04.000Z,284.52
2023-10-09T07:47:10.000Z,284.58
2023-10-09T07:48:37.000Z,284.63
2023-10-09T07:50:43.000Z,284.67
2023-10-09T07:53:28.000Z,284.7
2023-10-09T07:54:55.000Z,284.71
2023-10-09T07:57:01.000Z,284.74
2023-10-09T07:58:28.000Z,284.75
2023-10-09T08:00:34.000Z,284.77
2023-10-09T08:02:01.000Z,284.78
2023-10-09T08:04:07.000Z,284.8
2023-10-09T08:05:34.000Z,284.81
2023-10-09T08:07:41.000Z,284.84
2023-10-09T08:09:36.000Z,284.85
2023-10-09T08:11:42.000Z,284.89
2023-10-09T08:13:09.000Z,284.92
2023-10-09T08:15:15.000Z,284.94
2023-10-09T08:16:42.000Z,284.98
2023-10-09T08:18:48.000Z,285.05
2023-10-09T08:20:15.000Z,285.07
2023-10-09T08:22:21.000Z,285.13
2023-10-09T08:23:47.000Z,285.2
2023-10-09T08:25:54.000Z,285.22
2023-10-09T08:27:20.000Z,285.28
2023-10-09T08:29:27.000Z,285.32
2023-10-09T08:32:12.000Z,285.36
2023-10-09T08:33:38.000Z,285.39
2023-10-09T08:37:07.000Z,285.43
2023-10-09T08:38:34.000Z,285.47
2023-10-09T08:40:40.000Z,285.49
2023-10-09T08:42:07.000Z,285.56
2023-10-09T08:44:13.000Z,285.57
2023-10-09T08:45:39.000Z,285.61
2023-10-09T08:47:46.000Z,285.63
2023-10-09T08:49:13.000Z,285.71
2023-10-09T08:51:19.000Z,285.68
2023-10-09T08:52:46.000Z,285.7
2023-10-09T08:54:52.000Z,285.7
2023-10-09T08:56:19.000Z,285.71
2023-10-09T08:58:25.000Z,285.71
2023-10-09T08:59:51.000Z,285.74
2023-10-09T09:01:58.000Z,285.75
2023-10-09T09:03:24.000Z,285.78
2023-10-09T09:05:30.000Z,285.81
2023-10-09T09:06:57.000Z,285.85
2023-10-09T09:09:03.000Z,285.89
2023-10-09T09:11:49.000Z,285.93
2023-10-09T09:13:15.000Z,285.93
2023-10-09T09:15:21.000Z,285.99
2023-10-09T09:16:48.000Z,286.02
2023-10-09T09:18:54.000Z,286.07
2023-10-09T09:20:21.000Z,286.11
2023-10-09T09:22:27.000Z,286.19
2023-10-09T09:23:53.000Z,286.23
2023-10-09T09:25:59.000Z,286.27
2023-10-09T09:27:26.000Z,286.38
2023-10-09T09:29:32.000Z,286.41
2023-10-09T09:30:59.000Z,286.48
2023-10-09T09:33:05.000Z,286.56
2023-10-09T09:34:31.000Z,286.63
2023-10-09T09:36:38.000Z,286.66
2023-10-09T09:38:05.000Z,286.66
2023-10-09T09:40:11.000Z,286.7
2023-10-09T09:41:38.000Z,286.73
2023-10-09T09:43:44.000Z,286.76
2023-10-09T09:45:10.000Z,286.79
2023-10-09T09:47:17.000Z,286.82
2023-10-09T09:50:02.000Z,286.86
2023-10-09T09:51:29.000Z,286.91
2023-10-09T09:53:35.000Z,286.93
2023-10-09T09:55:01.000Z,286.95
2023-10-09T09:57:08.000Z,286.97
2023-10-09T09:58:34.000Z,287.01
2023-10-09T10:00:40.000Z,287.02
2023-10-09T10:02:07.000Z,287.08
2023-10-09T10:04:14.000Z,287.09
2023-10-09T10:05:40.000Z,287.12
2023-10-09T10:07:47.000Z,287.14
2023-10-09T10:09:13.000Z,287.16
2023-10-09T10:11:20.000Z,287.21
2023-10-09T10:12:46.000Z,287.26
2023-10-09T10:14:52.000Z,287.3
2023-10-09T10:16:19.000Z,287.33
2023-10-09T10:18:26.000Z,287.35
2023-10-09T10:19:52.000Z,287.41
2023-10-09T10:21:59.000Z,287.49
2023-10-09T10:23:25.000Z,287.57
2023-10-09T10:25:31.000Z,287.63
2023-10-09T10:28:17.000Z,287.73
2023-10-09T10:29:44.000Z,287.78
2023-10-09T10:31:50.000Z,287.85
2023-10-09T10:33:17.000Z,287.93
2023-10-09T10:35:24.000Z,287.99
2023-10-09T10:36:50.000Z,288.1
2023-10-09T10:38:56.000Z,288.21
2023-10-09T10:40:23.000Z,288.32
2023-10-09T10:42:29.000Z,288.38
2023-10-09T10:43:55.000Z,288.45
2023-10-09T10:46:02.000Z,288.49
2023-10-09T10:47:29.000Z,288.51
2023-10-09T10:49:35.000Z,288.56
2023-10-09T10:51:02.000Z,288.6
2023-10-09T10:53:08.000Z,288.65
2023-10-09T10:54:34.000Z,288.7
2023-10-09T10:56:41.000Z,288.75
2023-10-09T10:58:08.000Z,288.79
2023-10-09T11:00:14.000Z,288.81
2023-10-09T11:01:40.000Z,288.79
2023-10-09T11:03:47.000Z,288.79
2023-10-09T11:06:32.000Z,288.75
2023-10-09T11:07:58.000Z,288.74
2023-10-09T11:10:05.000Z,288.74
2023-10-09T11:11:32.000Z,288.77
2023-10-09T11:13:38.000Z,288.74
2023-10-09T11:15:05.000Z,288.71
2023-10-09T11:17:11.000Z,288.74
2023-10-09T11:18:37.000Z,288.77
2023-10-09T11:20:44.000Z,288.77
2023-10-09T11:22:10.000Z,288.78
2023-10-09T11:24:16.000Z,288.79
2023-10-09T11:25:43.000Z,288.78
2023-10-09T11:27:49.000Z,288.81
2023-10-09T11:29:16.000Z,288.82
2023-10-09T11:31:22.000Z,288.85
2023-10-09T11:32:48.000Z,288.89
2023-10-09T11:34:55.000Z,288.96
2023-10-09T11:36:21.000Z,288.98
2023-10-09T11:38:28.000Z,289.03
2023-10-09T11:39:54.000Z,289.05
2023-10-09T11:42:05.000Z,289.08
2023-10-09T11:44:50.000Z,289.15
2023-10-09T11:46:16.000Z,289.21
2023-10-09T11:48:23.000Z,289.25
2023-10-09T11:49:50.000Z,289.3
2023-10-09T11:51:56.000Z,289.33
2023-10-09T11:53:22.000Z,289.36
2023-10-09T11:55:29.000Z,289.4
2023-10-09T11:56:56.000Z,289.44
2023-10-09T11:59:02.000Z,289.46
2023-10-09T12:00:28.000Z,289.52
2023-10-09T12:02:35.000Z,289.55
2023-10-09T12:04:02.000Z,289.61
2023-10-09T12:06:08.000Z,289.66
2023-10-09T12:07:35.000Z,289.7
2023-10-09T12:09:41.000Z,289.73
2023-10-09T12:11:07.000Z,289.79
2023-10-09T12:13:14.000Z,289.84
2023-10-09T12:14:40.000Z,289.87
2023-10-09T12:16:47.000Z,289.9
2023-10-09T12:18:14.000Z,289.94
2023-10-09T12:20:20.000Z,289.94
2023-10-09T12:23:05.000Z,289.97
2023-10-09T12:24:32.000Z,289.97
2023-10-09T12:26:38.000Z,289.97
2023-10-09T12:28:05.000Z,290
2023-10-09T12:30:11.000Z,290
2023-10-09T12:31:37.000Z,290.01
2023-10-09T12:33:44.000Z,290.01
2023-10-09T12:35:11.000Z,290.02
2023-10-09T12:37:18.000Z,290.04
2023-10-09T12:38:44.000Z,290.04
2023-10-09T12:40:50.000Z,290.04
2023-10-09T12:42:17.000Z,290.05
2023-10-09T12:44:23.000Z,290.06
2023-10-09T12:45:50.000Z,290.06
2023-10-09T12:47:56.000Z,290.05
2023-10-09T12:49:23.000Z,290.06
2023-10-09T12:51:29.000Z,290.05
2023-10-09T12:52:56.000Z,290.04
2023-10-09T12:55:02.000Z,290.05
2023-10-09T12:56:28.000Z,290.05
2023-10-09T12:58:35.000Z,290.05
2023-10-09T13:01:20.000Z,290.02
2023-10-09T13:02:47.000Z,290.02
2023-10-09T13:04:53.000Z,290.04
2023-10-09T13:06:20.000Z,290.02
2023-10-09T13:08:26.000Z,290.05
2023-10-09T13:09:52.000Z,290.05
2023-10-09T13:11:59.000Z,290.05
2023-10-09T13:13:25.000Z,290.05
2023-10-09T13:15:31.000Z,290.06
2023-10-09T13:16:58.000Z,290.08
2023-10-09T13:19:04.000Z,290.08
2023-10-09T13:20:30.000Z,290.11
2023-10-09T13:22:37.000Z,290.11
2023-10-09T13:24:03.000Z,290.11
2023-10-09T13:26:09.000Z,290.09
2023-10-09T13:27:52.000Z,290.08
2023-10-09T13:29:58.000Z,290.08
2023-10-09T13:31:25.000Z,290.04
2023-10-09T13:33:31.000Z,290.04
2023-10-09T13:34:57.000Z,290.02
2023-10-09T13:37:04.000Z,290.01
2023-10-09T13:39:49.000Z,290.04
2023-10-09T13:41:15.000Z,290.05
2023-10-09T13:43:21.000Z,290.05
2023-10-09T13:44:48.000Z,290.06
2023-10-09T13:46:54.000Z,290.08
2023-10-09T13:48:21.000Z,290.09
2023-10-09T13:50:27.000Z,290.09
2023-10-09T13:51:54.000Z,290.09
2023-10-09T13:54:00.000Z,290.08
2023-10-09T13:55:26.000Z,290.09
2023-10-09T13:57:32.000Z,290.09
2023-10-09T13:58:59.000Z,290.09
2023-10-09T14:01:05.000Z,290.09
2023-10-09T14:02:32.000Z,290.06
2023-10-09T14:04:38.000Z,290.09
2023-10-09T14:06:05.000Z,290.06
2023-10-09T14:08:11.000Z,290.06
2023-10-09T14:09:38.000Z,290.05
2023-10-09T14:11:44.000Z,290.06
2023-10-09T14:13:10.000Z,290.08
2023-10-09T14:15:17.000Z,290.11
2023-10-09T14:18:02.000Z,290.09
2023-10-09T14:19:28.000Z,290.08
2023-10-09T14:21:35.000Z,290.05
2023-10-09T14:23:01.000Z,290.02
2023-10-09T14:25:07.000Z,290
2023-10-09T14:26:34.000Z,289.97
2023-10-09T14:28:40.000Z,289.95
2023-10-09T14:30:07.000Z,289.94
2023-10-09T14:32:13.000Z,289.95
2023-10-09T14:33:40.000Z,289.95
2023-10-09T14:35:46.000Z,289.95
2023-10-09T14:37:13.000Z,289.94
2023-10-09T14:39:19.000Z,289.97
2023-10-09T14:40:45.000Z,289.97
2023-10-09T14:42:52.000Z,289.98
2023-10-09T14:44:21.000Z,290
2023-10-09T14:46:27.000Z,290
2023-10-09T14:47:54.000Z,290
2023-10-09T14:50:00.000Z,289.97
2023-10-09T14:51:27.000Z,289.97
2023-10-09T14:53:33.000Z,289.95
2023-10-09T14:56:18.000Z,289.94
2023-10-09T14:57:45.000Z,289.94
2023-10-09T14:59:51.000Z,289.95
2023-10-09T15:01:18.000Z,289.95
2023-10-09T15:03:24.000Z,289.98
2023-10-09T15:04:50.000Z,290.01
2023-10-09T15:06:57.000Z,290.04
2023-10-09T15:08:23.000Z,290.05
2023-10-09T15:10:30.000Z,290.09
2023-10-09T15:11:57.000Z,290.09
2023-10-09T15:14:03.000Z,290.12
2023-10-09T15:15:30.000Z,290.13
2023-10-09T15:17:36.000Z,290.16
2023-10-09T15:19:02.000Z,290.18
2023-10-09T15:21:09.000Z,290.16
2023-10-09T15:22:35.000Z,290.13
2023-10-09T15:24:41.000Z,290.12
2023-10-09T15:26:08.000Z,290.11
2023-10-09T15:28:14.000Z,290.09
2023-10-09T15:29:41.000Z,290.05
2023-10-09T15:31:47.000Z,290.04
2023-10-09T15:34:32.000Z,290.01
2023-10-09T15:35:59.000Z,289.97
2023-10-09T15:38:05.000Z,289.98
2023-10-09T15:39:32.000Z,290.01
2023-10-09T15:41:38.000Z,290
2023-10-09T15:43:05.000Z,290.01
2023-10-09T15:45:11.000Z,290
2023-10-09T15:46:37.000Z,290
2023-10-09T15:48:44.000Z,289.98
2023-10-09T15:50:10.000Z,289.95
2023-10-09T15:52:17.000Z,289.97
2023-10-09T15:53:43.000Z,289.95
2023-10-09T15:55:50.000Z,289.94
2023-10-09T15:57:17.000Z,289.94
2023-10-09T15:59:23.000Z,289.94
2023-10-09T16:00:50.000Z,289.91
2023-10-09T16:02:56.000Z,289.9
2023-10-09T16:04:22.000Z,289.9
2023-10-09T16:06:28.000Z,289.87
2023-10-09T16:07:55.000Z,289.83
2023-10-09T16:10:01.000Z,289.79
2023-10-09T16:12:47.000Z,289.83
2023-10-09T16:14:13.000Z,289.81
2023-10-09T16:16:20.000Z,289.84
2023-10-09T16:17:47.000Z,289.87
2023-10-09T16:19:53.000Z,289.84
2023-10-09T16:21:19.000Z,289.79
2023-10-09T16:23:26.000Z,289.74
2023-10-09T16:24:52.000Z,289.69
2023-10-09T16:26:59.000Z,289.65
2023-10-09T16:28:25.000Z,289.61
2023-10-09T16:30:32.000Z,289.59
2023-10-09T16:31:58.000Z,289.55
2023-10-09T16:34:04.000Z,289.55
2023-10-09T16:35:31.000Z,289.51
2023-10-09T16:37:37.000Z,289.46
2023-10-09T16:39:04.000Z,289.44
2023-10-09T16:41:10.000Z,289.42
2023-10-09T16:42:37.000Z,289.39
2023-10-09T16:44:43.000Z,289.39
2023-10-09T16:46:10.000Z,289.37
2023-10-09T16:48:16.000Z,289.39
2023-10-09T16:51:02.000Z,289.4
2023-10-09T16:52:35.000Z,289.37
2023-10-09T16:54:41.000Z,289.36
2023-10-09T16:56:07.000Z,289.36
2023-10-09T16:58:14.000Z,289.37
2023-10-09T16:59:40.000Z,289.36
2023-10-09T17:01:46.000Z,289.37
2023-10-09T17:03:13.000Z,289.36
2023-10-09T17:05:19.000Z,289.36
2023-10-09T17:06:46.000Z,289.39
2023-10-09T17:08:52.000Z,289.39
2023-10-09T17:10:19.000Z,289.37
2023-10-09T17:12:25.000Z,289.36
2023-10-09T17:13:51.000Z,289.32
2023-10-09T17:15:58.000Z,289.32
2023-10-09T17:17:24.000Z,289.3
2023-10-09T17:19:31.000Z,289.25
2023-10-09T17:20:58.000Z,289.21
2023-10-09T17:23:04.000Z,289.15
2023-10-09T17:24:31.000Z,289.12
2023-10-09T17:26:37.000Z,289.1
2023-10-09T17:29:23.000Z,289.05
2023-10-09T17:30:49.000Z,289.03
2023-10-09T17:32:56.000Z,289
2023-10-09T17:34:22.000Z,288.97
2023-10-09T17:36:28.000Z,288.96
2023-10-09T17:37:55.000Z,288.97
2023-10-09T17:40:01.000Z,288.94
2023-10-09T17:41:28.000Z,288.91
2023-10-09T17:43:34.000Z,288.89
2023-10-09T17:45:00.000Z,288.87
2023-10-09T17:47:07.000Z,288.87
2023-10-09T17:48:33.000Z,288.89
2023-10-09T17:50:39.000Z,288.9
2023-10-09T17:52:06.000Z,288.89
2023-10-09T17:54:13.000Z,288.87
2023-10-09T17:55:40.000Z,288.9
2023-10-09T17:57:46.000Z,288.93
2023-10-09T17:59:12.000Z,288.94
2023-10-09T18:01:19.000Z,288.94
2023-10-09T18:02:46.000Z,288.97
2023-10-09T18:04:53.000Z,288.97
2023-10-09T18:07:38.000Z,288.96
2023-10-09T18:09:04.000Z,288.91
2023-10-09T18:11:10.000Z,288.91
2023-10-09T18:12:37.000Z,288.89
2023-10-09T18:14:43.000Z,288.83
2023-10-09T18:16:10.000Z,288.81
2023-10-09T18:18:16.000Z,288.78
2023-10-09T18:19:43.000Z,288.74
2023-10-09T18:21:49.000Z,288.7
2023-10-09T18:23:15.000Z,288.65
2023-10-09T18:25:22.000Z,288.63
2023-10-09T18:26:48.000Z,288.6
2023-10-09T18:28:55.000Z,288.57
2023-10-09T18:30:21.000Z,288.54
2023-10-09T18:32:28.000Z,288.53
2023-10-09T18:33:54.000Z,288.5
2023-10-09T18:36:01.000Z,288.47
2023-10-09T18:37:27.000Z,288.43
2023-10-09T18:39:33.000Z,288.39
2023-10-09T18:41:00.000Z,288.33
2023-10-09T18:43:06.000Z,288.31
2023-10-09T18:45:51.000Z,288.21
2023-10-09T18:47:18.000Z,288.16
2023-10-09T18:49:24.000Z,288.12
2023-10-09T18:50:51.000Z,288.02
2023-10-09T18:52:57.000Z,287.99
2023-10-09T18:54:23.000Z,287.93
2023-10-09T18:56:30.000Z,287.92
2023-10-09T18:57:57.000Z,287.89
2023-10-09T19:00:03.000Z,287.86
2023-10-09T19:01:29.000Z,287.88
2023-10-09T19:03:35.000Z,287.91
2023-10-09T19:05:02.000Z,287.93
2023-10-09T19:07:08.000Z,287.95
2023-10-09T19:08:35.000Z,288.03
2023-10-09T19:10:41.000Z,288.06
2023-10-09T19:12:07.000Z,288.06
2023-10-09T19:14:14.000Z,288.07
2023-10-09T19:15:40.000Z,288.09
2023-10-09T19:17:47.000Z,288.16
2023-10-09T19:19:14.000Z,288.24
2023-10-09T19:21:20.000Z,288.31
2023-10-09T19:24:05.000Z,288.36
2023-10-09T19:25:32.000Z,288.38
2023-10-09T19:27:38.000Z,288.39
2023-10-09T19:29:05.000Z,288.42
2023-10-09T19:31:11.000Z,288.43
2023-10-09T19:32:38.000Z,288.47
2023-10-09T19:34:44.000Z,288.49
2023-10-09T19:36:11.000Z,288.5
2023-10-09T19:38:17.000Z,288.56
2023-10-09T19:39:44.000Z,288.54
2023-10-09T19:41:50.000Z,288.57
2023-10-09T19:43:17.000Z,288.6
2023-10-09T19:45:23.000Z,288.64
2023-10-09T19:46:50.000Z,288.67
2023-10-09T19:48:56.000Z,288.67
2023-10-09T19:50:23.000Z,288.67
2023-10-09T19:52:29.000Z,288.67
2023-10-09T19:53:56.000Z,288.71
2023-10-09T19:56:02.000Z,288.74
2023-10-09T19:57:29.000Z,288.77
2023-10-09T19:59:35.000Z,288.75
2023-10-09T20:02:20.000Z,288.79
2023-10-09T20:03:47.000Z,288.81
2023-10-09T20:05:53.000Z,288.83
2023-10-09T20:07:20.000Z,288.83
2023-10-09T20:09:26.000Z,288.85
2023-10-09T20:10:53.000Z,288.89
2023-10-09T20:12:59.000Z,288.85
2023-10-09T20:14:25.000Z,288.85
2023-10-09T20:16:32.000Z,288.85
2023-10-09T20:17:58.000Z,288.83
2023-10-09T20:20:05.000Z,288.83
2023-10-09T20:21:31.000Z,288.89
2023-10-09T20:23:37.000Z,288.91
2023-10-09T20:25:04.000Z,288.93
2023-10-09T20:27:10.000Z,288.94
2023-10-09T20:28:37.000Z,288.91
2023-10-09T20:30:43.000Z,288.93
2023-10-09T20:32:09.000Z,288.93
2023-10-09T20:34:16.000Z,288.9
2023-10-09T20:35:43.000Z,288.9
2023-10-09T20:37:49.000Z,288.87
2023-10-09T20:40:34.000Z,288.83
2023-10-09T20:42:01.000Z,288.79
2023-10-09T20:44:07.000Z,288.78
2023-10-09T20:45:34.000Z,288.78
2023-10-09T20:47:40.000Z,288.79
2023-10-09T20:49:07.000Z,288.81
2023-10-09T20:51:13.000Z,288.79
2023-10-09T20:52:40.000Z,288.79
2023-10-09T20:54:46.000Z,288.79
2023-10-09T20:56:12.000Z,288.79
2023-10-09T20:58:19.000Z,288.79
2023-10-09T20:59:45.000Z,288.78
2023-10-09T21:01:52.000Z,288.75
2023-10-09T21:03:19.000Z,288.7
2023-10-09T21:05:25.000Z,288.7
2023-10-09T21:06:51.000Z,288.68
2023-10-09T21:08:58.000Z,288.72
2023-10-09T21:10:25.000Z,288.74
2023-10-09T21:12:31.000Z,288.71
2023-10-09T21:13:58.000Z,288.71
2023-10-09T21:16:04.000Z,288.71
2023-10-09T21:18:49.000Z,288.71
2023-10-09T21:20:16.000Z,288.71
2023-10-09T21:22:22.000Z,288.68
2023-10-09T21:23:49.000Z,288.68
2023-10-09T21:25:55.000Z,288.65
2023-10-09T21:27:21.000Z,288.65
2023-10-09T21:29:28.000Z,288.65
2023-10-09T21:30:54.000Z,288.64
2023-10-09T21:33:00.000Z,288.61
2023-10-09T21:34:27.000Z,288.58
2023-10-09T21:36:34.000Z,288.54
2023-10-09T21:38:00.000Z,288.51
2023-10-09T21:40:06.000Z,288.49
2023-10-09T21:41:33.000Z,288.45
2023-10-09T21:43:39.000Z,288.43
2023-10-09T21:45:05.000Z,288.4
2023-10-09T21:47:12.000Z,288.39
2023-10-09T21:48:38.000Z,288.36
2023-10-09T21:50:44.000Z,288.35
2023-10-09T21:52:11.000Z,288.33
2023-10-09T21:54:17.000Z,288.32
2023-10-09T21:57:02.000Z,288.27
2023-10-09T21:58:29.000Z,288.24
2023-10-09T22:00:35.000Z,288.24
2023-10-09T22:02:02.000Z,288.24
2023-10-09T22:04:08.000Z,288.21
2023-10-09T22:05:35.000Z,288.23
2023-10-09T22:07:41.000Z,288.23
2023-10-09T22:09:08.000Z,288.23
2023-10-09T22:11:14.000Z,288.23
2023-10-09T22:12:40.000Z,288.24
2023-10-09T22:14:47.000Z,288.24
2023-10-09T22:16:13.000Z,288.25
2023-10-09T22:18:20.000Z,288.25
2023-10-09T22:19:46.000Z,288.25
2023-10-09T22:21:52.000Z,288.25
2023-10-09T22:23:19.000Z,288.24
2023-10-09T22:25:25.000Z,288.23
2023-10-09T22:26:52.000Z,288.24
2023-10-09T22:28:58.000Z,288.21
2023-10-09T22:30:25.000Z,288.21
2023-10-09T22:32:31.000Z,288.18
2023-10-09T22:35:17.000Z,288.17
2023-10-09T22:36:43.000Z,288.17
2023-10-09T22:39:00.000Z,288.16
2023-10-09T22:40:27.000Z,288.13
2023-10-09T22:42:34.000Z,288.13
2023-10-09T22:44:00.000Z,288.1
2023-10-09T22:46:06.000Z,288.09
2023-10-09T22:47:33.000Z,288.09
2023-10-09T22:49:39.000Z,288.09
2023-10-09T22:51:06.000Z,288.06